Time;durP1;ratioP1;P1;durP2;ratioP2;P2;SDS_P1;SDS_P2;PMS_P1;PMS_P2;Temp;Humidity;BMP_temperature;BMP_pressure;BME280_temperature;BME280_humidity;BME280_pressure;Samples;Min_cycle;Max_cycle;Signal;HPM_P1;HPM_P2
2022/06/16 00:01:04;;;;;;;6.73;5.00;;;23.20;61.60;;;;;;4972694;28;20714;-69
2022/06/16 00:03:31;;;;;;;5.70;4.50;;;23.10;61.70;;;;;;4973334;28;20670;-70
2022/06/16 00:05:57;;;;;;;5.97;4.37;;;23.10;61.50;;;;;;4992438;28;20721;-69
2022/06/16 00:08:24;;;;;;;4.70;4.30;;;23.10;61.80;;;;;;4991028;28;20694;-70
2022/06/16 00:13:39;;;;;;;5.50;3.90;;;23.00;61.90;;;;;;4989167;28;21261;-71
2022/06/16 00:16:07;;;;;;;4.37;3.97;;;23.00;62.00;;;;;;4991410;28;20746;-70
2022/06/16 00:18:34;;;;;;;4.10;3.80;;;23.00;62.00;;;;;;4991103;28;21084;-70
2022/06/16 00:21:01;;;;;;;6.20;4.10;;;22.90;62.40;;;;;;4992202;28;20630;-69
2022/06/16 00:23:28;;;;;;;5.10;4.60;;;22.70;62.80;;;;;;4983433;28;20655;-70
2022/06/16 00:26:00;;;;;;;4.57;4.17;;;22.70;62.90;;;;;;4971769;28;21174;-69
2022/06/16 00:28:27;;;;;;;4.20;3.90;;;22.70;63.10;;;;;;4971377;28;20709;-69
2022/06/16 00:31:02;;;;;;;4.53;4.20;;;22.60;63.50;;;;;;4988492;28;20634;-70
2022/06/16 00:33:30;;;;;;;4.57;4.13;;;22.60;63.90;;;;;;4982440;28;20777;-69
2022/06/16 00:35:57;;;;;;;6.17;4.70;;;22.50;64.10;;;;;;4988329;28;20662;-69
2022/06/16 00:38:24;;;;;;;5.10;4.43;;;22.50;64.20;;;;;;4989415;28;20709;-70
2022/06/16 00:40:52;;;;;;;5.50;4.00;;;22.50;64.40;;;;;;4980622;28;20735;-69
2022/06/16 00:43:18;;;;;;;6.97;4.80;;;22.50;64.20;;;;;;4991595;28;20650;-69
2022/06/16 00:46:02;;;;;;;4.50;4.20;;;22.50;64.20;;;;;;4973162;28;20638;-69
2022/06/16 00:48:35;;;;;;;5.30;4.17;;;22.50;64.40;;;;;;4990924;28;20649;-70
2022/06/16 00:51:24;;;;;;;8.43;5.20;;;22.50;64.50;;;;;;4973109;28;20746;-69
2022/06/16 00:53:54;;;;;;;4.80;3.97;;;22.50;64.60;;;;;;4971541;28;20718;-70
2022/06/16 00:56:21;;;;;;;5.27;4.70;;;22.40;64.80;;;;;;4970713;28;20701;-69
2022/06/16 00:58:52;;;;;;;5.00;4.60;;;22.40;65.00;;;;;;4971296;28;21198;-68
2022/06/16 01:01:20;;;;;;;4.80;4.40;;;22.40;65.20;;;;;;4981573;28;21009;-70
2022/06/16 01:06:37;;;;;;;5.10;4.70;;;22.40;65.60;;;;;;4970222;28;20658;-69
2022/06/16 01:09:07;;;;;;;5.03;4.53;;;22.20;66.10;;;;;;4970295;28;21198;-69
2022/06/16 01:14:47;;;;;;;6.63;4.67;;;22.10;67.00;;;;;;4987875;28;20729;-70
2022/06/16 01:17:58;;;;;;;5.07;4.27;;;22.00;67.70;;;;;;4970735;28;20829;-69
2022/06/16 01:20:44;;;;;;;5.13;4.67;;;22.00;68.20;;;;;;4971253;28;20622;-70
2022/06/16 01:23:35;;;;;;;8.13;4.63;;;21.90;68.60;;;;;;4990050;28;20646;-70
2022/06/16 01:26:29;;;;;;;7.10;4.70;;;21.90;69.20;;;;;;4971179;28;20619;-69
2022/06/16 01:28:59;;;;;;;5.20;4.33;;;21.90;69.20;;;;;;4970638;28;20615;-69
2022/06/16 01:31:40;;;;;;;8.10;4.50;;;21.90;69.40;;;;;;4970684;28;20627;-70
2022/06/16 01:34:26;;;;;;;5.70;5.17;;;21.90;69.70;;;;;;4972725;28;20627;-69
2022/06/16 01:37:10;;;;;;;6.20;4.17;;;21.80;70.00;;;;;;4975135;28;20991;-71
2022/06/16 01:39:47;;;;;;;5.63;5.13;;;21.70;70.20;;;;;;4991119;28;20637;-69
2022/06/16 01:42:25;;;;;;;4.57;4.20;;;21.70;70.20;;;;;;4989427;28;20658;-69
2022/06/16 01:45:05;;;;;;;5.73;4.67;;;21.70;70.70;;;;;;4981471;28;20642;-69
2022/06/16 01:47:34;;;;;;;8.10;4.60;;;21.70;71.60;;;;;;4993620;28;20625;-69
2022/06/16 01:50:08;;;;;;;5.13;4.50;;;21.60;71.20;;;;;;4991774;28;20622;-69
2022/06/16 01:52:39;;;;;;;5.13;4.73;;;21.50;71.60;;;;;;4993381;28;20641;-71
2022/06/16 01:55:13;;;;;;;6.67;4.33;;;21.50;72.10;;;;;;4992935;28;20653;-69
2022/06/16 01:58:01;;;;;;;4.77;4.37;;;21.50;71.80;;;;;;4994541;28;21311;-69
2022/06/16 02:00:28;;;;;;;5.53;4.00;;;21.50;71.80;;;;;;4973383;28;20722;-69
2022/06/16 02:03:06;;;;;;;5.07;4.60;;;21.40;72.10;;;;;;4973504;28;20681;-70
2022/06/16 02:05:36;;;;;;;5.77;5.27;;;21.40;72.20;;;;;;4974460;28;20666;-70
2022/06/16 02:08:16;;;;;;;6.50;4.70;;;21.30;72.50;;;;;;4974301;28;20611;-70
2022/06/16 02:10:46;;;;;;;4.67;4.27;;;21.30;72.90;;;;;;4975317;28;20619;-70
2022/06/16 02:13:17;;;;;;;11.03;5.00;;;21.30;73.00;;;;;;4984472;28;20749;-70
2022/06/16 02:15:57;;;;;;;6.50;4.30;;;21.30;73.20;;;;;;4986015;28;20696;-70
2022/06/16 02:18:31;;;;;;;4.50;4.10;;;21.20;73.50;;;;;;4973952;28;20623;-70
2022/06/16 02:21:29;;;;;;;6.40;4.83;;;21.20;74.10;;;;;;4985871;28;20638;-70
2022/06/16 02:23:57;;;;;;;5.20;4.70;;;21.10;74.30;;;;;;4991263;28;20622;-70
2022/06/16 02:26:27;;;;;;;5.07;4.67;;;21.10;74.80;;;;;;4992923;28;20753;-70
2022/06/16 02:28:56;;;;;;;7.43;5.57;;;21.00;75.20;;;;;;4993915;28;21212;-70
2022/06/16 02:32:01;;;;;;;5.30;4.80;;;21.00;75.60;;;;;;4977259;28;20649;-70
2022/06/16 02:34:57;;;;;;;4.97;4.57;;;21.00;75.60;;;;;;4973290;28;21163;-70
2022/06/16 02:37:31;;;;;;;5.17;4.67;;;20.90;76.10;;;;;;4977446;28;20696;-70
2022/06/16 02:40:10;;;;;;;5.33;4.80;;;20.90;76.50;;;;;;4992906;28;20633;-69
2022/06/16 02:43:05;;;;;;;5.03;4.53;;;21.00;76.50;;;;;;4984089;28;20659;-70
2022/06/16 02:45:45;;;;;;;5.83;4.53;;;20.90;76.80;;;;;;4973707;28;20722;-70
2022/06/16 02:48:15;;;;;;;4.80;4.40;;;20.90;77.10;;;;;;4972119;28;20617;-70
2022/06/16 02:51:07;;;;;;;5.43;4.60;;;21.00;77.40;;;;;;4977952;28;20722;-70
2022/06/16 02:54:10;;;;;;;5.93;5.37;;;20.90;77.70;;;;;;4977743;28;21111;-70
2022/06/16 02:57:02;;;;;;;5.33;4.83;;;21.00;77.70;;;;;;4972838;28;21004;-70
2022/06/16 02:59:35;;;;;;;6.43;5.30;;;21.10;77.70;;;;;;4972511;28;21242;-70
2022/06/16 03:02:08;;;;;;;5.30;4.80;;;21.10;77.70;;;;;;4971805;28;20635;-71
2022/06/16 03:04:43;;;;;;;5.77;5.10;;;21.10;77.70;;;;;;4972676;28;20984;-70
2022/06/16 03:07:11;;;;;;;5.23;4.73;;;21.10;77.80;;;;;;4973297;28;20997;-70
2022/06/16 03:09:39;;;;;;;5.80;5.20;;;21.20;77.80;;;;;;4983039;28;20626;-71
2022/06/16 03:12:07;;;;;;;5.77;5.20;;;21.20;78.00;;;;;;4991703;28;20990;-71
2022/06/16 03:14:35;;;;;;;5.87;5.07;;;21.30;77.90;;;;;;4974961;28;20675;-71
2022/06/16 03:17:02;;;;;;;5.50;4.97;;;21.30;78.00;;;;;;4992069;28;21240;-70
2022/06/16 03:19:30;;;;;;;5.27;4.77;;;21.20;78.60;;;;;;4991321;28;20657;-72
2022/06/16 03:21:56;;;;;;;5.77;4.77;;;21.20;78.70;;;;;;4977756;28;20680;-70
2022/06/16 03:24:24;;;;;;;5.60;4.47;;;21.20;79.10;;;;;;4991437;28;21018;-70
2022/06/16 03:26:51;;;;;;;6.37;5.20;;;21.10;79.50;;;;;;4991902;28;20638;-70
2022/06/16 03:29:18;;;;;;;5.30;4.90;;;21.10;79.70;;;;;;4973899;28;21133;-70
2022/06/16 03:31:45;;;;;;;7.10;5.10;;;21.20;79.60;;;;;;4971659;28;20669;-70
2022/06/16 03:34:12;;;;;;;5.33;4.87;;;21.30;79.10;;;;;;4971645;28;20697;-70
2022/06/16 03:36:39;;;;;;;5.57;5.07;;;21.30;79.50;;;;;;4974742;28;20655;-70
2022/06/16 03:39:07;;;;;;;5.63;4.47;;;21.30;79.20;;;;;;4971407;28;20994;-68
2022/06/16 03:41:34;;;;;;;4.87;4.47;;;21.30;79.80;;;;;;4971270;28;20614;-70
2022/06/16 03:44:01;;;;;;;4.87;4.40;;;21.30;79.30;;;;;;4986715;28;20637;-70
2022/06/16 03:46:28;;;;;;;5.30;4.80;;;21.30;79.80;;;;;;4977338;28;20623;-70
2022/06/16 03:48:54;;;;;;;5.60;5.10;;;21.30;79.90;;;;;;4973082;28;20698;-70
2022/06/16 03:51:21;;;;;;;5.03;4.60;;;21.40;79.50;;;;;;4972577;28;20622;-70
2022/06/16 03:53:48;;;;;;;5.20;4.70;;;21.50;79.60;;;;;;4981576;28;20672;-70
2022/06/16 03:56:15;;;;;;;6.03;4.50;;;21.60;79.20;;;;;;4989226;28;20618;-70
2022/06/16 03:58:42;;;;;;;5.17;4.67;;;21.50;79.30;;;;;;4980785;28;20661;-71
2022/06/16 04:01:09;;;;;;;5.17;4.77;;;21.50;79.60;;;;;;4987128;28;20649;-70
2022/06/16 04:06:21;;;;;;;5.43;4.63;;;21.60;79.60;;;;;;4990259;28;21158;-70
2022/06/16 04:08:48;;;;;;;5.80;4.60;;;21.70;78.90;;;;;;4991724;28;21178;-70
2022/06/16 04:11:27;;;;;;;5.47;4.50;;;21.80;79.10;;;;;;4990250;28;20710;-68
2022/06/16 04:14:00;;;;;;;6.70;4.50;;;21.80;79.40;;;;;;4989522;28;20737;-71
2022/06/16 04:16:36;;;;;;;9.27;4.47;;;21.90;79.20;;;;;;4990677;28;20661;-70
2022/06/16 04:19:04;;;;;;;4.50;4.10;;;22.10;78.10;;;;;;4978592;28;20733;-70
2022/06/16 04:21:31;;;;;;;5.27;4.43;;;22.40;76.70;;;;;;4972778;28;20619;-69
2022/06/16 04:23:58;;;;;;;6.80;4.57;;;22.50;75.60;;;;;;4970970;28;20738;-72
2022/06/16 04:26:25;;;;;;;14.33;5.17;;;22.50;75.20;;;;;;4972324;28;20611;-70
2022/06/16 04:28:52;;;;;;;6.00;4.37;;;22.60;74.60;;;;;;4970361;28;20724;-70
2022/06/16 04:31:19;;;;;;;5.23;4.83;;;22.80;74.00;;;;;;4970915;28;21221;-70
2022/06/16 04:33:46;;;;;;;5.47;4.97;;;23.00;73.20;;;;;;4971233;28;20683;-70
2022/06/16 04:36:14;;;;;;;4.17;3.87;;;23.20;72.30;;;;;;4971869;28;20607;-70
2022/06/16 04:38:41;;;;;;;4.67;4.27;;;23.40;71.60;;;;;;4970110;28;20671;-70
2022/06/16 04:41:08;;;;;;;9.13;5.17;;;23.60;71.00;;;;;;4972150;28;20706;-70
2022/06/16 04:43:36;;;;;;;4.57;4.20;;;23.80;70.50;;;;;;4986470;28;20673;-70
2022/06/16 04:46:04;;;;;;;7.00;4.50;;;23.90;69.70;;;;;;4988881;28;20637;-70
2022/06/16 04:48:32;;;;;;;5.57;4.80;;;24.00;69.30;;;;;;4989978;28;20653;-71
2022/06/16 04:51:00;;;;;;;4.60;4.23;;;24.00;69.00;;;;;;4991688;28;20650;-70
2022/06/16 04:53:26;;;;;;;5.20;4.70;;;24.10;68.80;;;;;;4991146;28;20745;-70
2022/06/16 04:55:55;;;;;;;5.57;4.40;;;24.30;68.40;;;;;;4991037;28;20626;-71
2022/06/16 04:58:23;;;;;;;5.40;4.70;;;24.40;67.40;;;;;;4980831;28;20662;-71
2022/06/16 05:00:52;;;;;;;5.87;4.50;;;24.50;67.20;;;;;;4989721;28;20641;-70
2022/06/16 05:03:39;;;;;;;4.67;4.27;;;24.20;67.60;;;;;;4990764;28;20642;-70
2022/06/16 05:06:05;;;;;;;6.03;4.70;;;24.00;68.30;;;;;;4990760;28;20650;-70
2022/06/16 05:08:32;;;;;;;7.67;4.67;;;23.80;68.90;;;;;;4991448;28;20630;-71
2022/06/16 05:10:59;;;;;;;4.77;4.47;;;23.90;68.80;;;;;;4979224;28;21214;-70
2022/06/16 05:13:26;;;;;;;5.80;5.20;;;24.10;68.50;;;;;;4975339;28;20626;-72
2022/06/16 05:15:54;;;;;;;5.20;4.77;;;24.40;68.00;;;;;;4985345;28;20642;-70
2022/06/16 05:18:21;;;;;;;6.27;4.80;;;24.70;67.20;;;;;;4995499;28;20720;-69
2022/06/16 05:20:48;;;;;;;4.70;4.30;;;25.00;66.60;;;;;;4989385;28;20656;-71
2022/06/16 05:23:15;;;;;;;5.90;4.77;;;25.30;66.00;;;;;;4993825;28;20995;-71
2022/06/16 05:25:42;;;;;;;6.30;4.70;;;25.60;65.30;;;;;;4988814;28;20641;-71
2022/06/16 05:28:10;;;;;;;4.90;4.60;;;25.90;64.40;;;;;;4975538;28;20627;-70
2022/06/16 05:30:37;;;;;;;7.80;4.80;;;25.90;64.20;;;;;;4976681;28;20634;-70
2022/06/16 05:33:04;;;;;;;5.17;4.67;;;25.90;64.10;;;;;;4990389;28;21307;-71
2022/06/16 05:35:31;;;;;;;7.93;4.67;;;26.00;64.00;;;;;;4992498;28;20772;-71
2022/06/16 05:37:58;;;;;;;5.80;4.50;;;26.10;63.70;;;;;;4991926;28;20664;-72
2022/06/16 05:40:26;;;;;;;5.37;4.87;;;26.10;63.60;;;;;;4991537;28;20634;-71
2022/06/16 05:42:52;;;;;;;5.50;4.90;;;26.30;63.30;;;;;;4982734;28;20667;-71
2022/06/16 05:45:19;;;;;;;4.60;4.30;;;26.30;63.30;;;;;;4993495;28;20606;-71
2022/06/16 05:47:47;;;;;;;5.30;4.80;;;26.60;62.80;;;;;;4991960;28;20633;-71
2022/06/16 05:50:16;;;;;;;6.27;5.23;;;26.70;62.40;;;;;;4992028;28;20628;-70
2022/06/16 05:52:44;;;;;;;6.93;5.20;;;27.00;61.60;;;;;;4984841;28;20662;-70
2022/06/16 05:55:12;;;;;;;7.30;5.10;;;27.20;61.40;;;;;;4985836;28;20661;-70
2022/06/16 05:57:39;;;;;;;6.47;4.80;;;27.30;61.00;;;;;;4973889;28;20655;-71
2022/06/16 06:00:07;;;;;;;4.90;4.60;;;27.20;60.50;;;;;;4974375;28;21190;-70
2022/06/16 06:02:34;;;;;;;11.60;5.13;;;27.00;60.70;;;;;;5003310;28;20638;-70
2022/06/16 06:05:01;;;;;;;5.80;5.20;;;26.70;61.20;;;;;;4998204;28;20640;-71
2022/06/16 06:16:25;;;;;;;7.87;4.90;;;26.80;61.50;;;;;;4994988;28;20606;-70
2022/06/16 06:18:34;;;;;;;6.60;4.80;;;27.30;60.10;;;;;;4993351;28;21032;-66
2022/06/16 06:21:01;;;;;;;5.70;5.20;;;27.50;60.00;;;;;;4992250;28;21193;-66
2022/06/16 06:23:28;;;;;;;5.93;4.70;;;28.00;59.30;;;;;;4985381;28;20639;-66
2022/06/16 06:25:56;;;;;;;7.60;4.87;;;29.10;58.00;;;;;;4993407;28;20614;-66
2022/06/16 06:28:24;;;;;;;4.93;4.50;;;30.00;56.30;;;;;;5008786;28;20617;-66
2022/06/16 06:30:51;;;;;;;4.60;4.20;;;30.60;55.10;;;;;;4994777;28;20705;-66
2022/06/16 06:33:18;;;;;;;4.80;4.40;;;30.90;53.90;;;;;;4984287;28;20952;-66
2022/06/16 06:35:46;;;;;;;4.40;4.10;;;31.30;53.50;;;;;;4973545;28;20614;-66
2022/06/16 06:38:14;;;;;;;4.50;4.10;;;32.20;52.00;;;;;;4993397;28;21101;-71
2022/06/16 06:40:41;;;;;;;4.30;3.90;;;32.70;51.10;;;;;;5000643;28;20669;-66
2022/06/16 06:43:08;;;;;;;5.90;4.10;;;33.30;50.30;;;;;;4989104;28;21039;-66
2022/06/16 06:45:35;;;;;;;4.17;3.77;;;33.50;49.00;;;;;;4975981;28;20611;-66
2022/06/16 06:48:04;;;;;;;4.10;3.80;;;33.70;48.70;;;;;;4992795;28;20718;-66
2022/06/16 06:50:34;;;;;;;5.33;4.07;;;34.20;48.20;;;;;;4988123;28;21185;-66
2022/06/16 06:53:01;;;;;;;5.50;4.20;;;35.50;47.20;;;;;;4991259;28;20634;-66
2022/06/16 06:55:29;;;;;;;3.80;3.60;;;36.30;45.50;;;;;;4982968;28;20685;-66
2022/06/16 06:57:56;;;;;;;4.10;3.90;;;35.10;46.20;;;;;;4972676;28;20659;-68
2022/06/16 07:00:26;;;;;;;4.87;4.47;;;34.20;47.50;;;;;;4971937;28;20718;-66
2022/06/16 07:02:53;;;;;;;3.80;3.70;;;34.70;46.60;;;;;;4974162;28;21053;-66
2022/06/16 07:05:20;;;;;;;4.53;3.70;;;35.50;46.20;;;;;;4981115;28;20657;-66
2022/06/16 07:07:47;;;;;;;3.70;3.50;;;36.90;44.90;;;;;;4992000;28;20626;-67
2022/06/16 07:10:16;;;;;;;4.30;3.80;;;38.30;43.60;;;;;;4984816;28;20634;-68
2022/06/16 07:12:42;;;;;;;4.33;3.97;;;39.20;42.20;;;;;;4973985;28;20645;-67
2022/06/16 07:15:10;;;;;;;4.23;3.93;;;38.90;41.60;;;;;;4973002;28;20682;-66
2022/06/16 07:17:37;;;;;;;4.20;3.90;;;38.70;41.80;;;;;;4990243;28;21045;-66
2022/06/16 07:20:04;;;;;;;9.00;5.47;;;38.70;41.90;;;;;;4989281;28;21088;-66
2022/06/16 07:22:31;;;;;;;4.30;3.93;;;37.40;42.00;;;;;;4991736;28;21256;-66
2022/06/16 07:24:58;;;;;;;3.97;3.77;;;36.00;43.00;;;;;;4980835;28;20645;-66
2022/06/16 07:27:25;;;;;;;4.33;3.97;;;34.60;44.70;;;;;;4988532;28;20621;-66
2022/06/16 07:29:52;;;;;;;4.43;4.13;;;33.40;45.90;;;;;;4991881;28;21192;-65
2022/06/16 07:32:20;;;;;;;4.53;4.13;;;32.80;47.00;;;;;;4976433;28;20706;-66
2022/06/16 07:34:48;;;;;;;4.47;4.03;;;33.60;46.80;;;;;;4986013;28;20834;-68
2022/06/16 07:37:15;;;;;;;4.50;4.20;;;35.60;44.70;;;;;;4972467;28;20622;-67
2022/06/16 07:39:42;;;;;;;4.00;3.80;;;37.70;43.00;;;;;;4971846;28;20710;-66
2022/06/16 07:42:10;;;;;;;3.97;3.70;;;39.50;41.60;;;41.93;nan;100786.25;4971350;28;21267;-66
2022/06/16 07:44:37;;;;;;;4.10;3.90;;;41.20;40.30;;;43.14;nan;100791.78;4972717;28;20627;-66
2022/06/16 07:47:06;;;;;;;4.00;3.80;;;42.40;39.10;;;43.68;nan;100784.84;4980559;28;20634;-66
2022/06/16 07:49:33;;;;;;;6.60;3.60;;;43.40;38.30;;;44.67;nan;100798.03;4986773;28;20630;-67
2022/06/16 07:52:00;;;;;;;4.30;3.90;;;43.80;38.00;;;45.83;nan;100787.84;4971608;28;21249;-66
2022/06/16 07:54:29;;;;;;;3.93;3.50;;;45.00;37.10;;;46.22;nan;100781.66;4972951;28;20622;-67
2022/06/16 07:57:18;;;;;;;4.10;3.90;;;45.50;36.60;;;47.05;nan;100787.47;4972434;28;20664;-66
2022/06/16 07:59:55;;;;;;;4.50;4.20;;;46.30;36.10;;;46.32;nan;100794.25;4971145;28;21062;-67
2022/06/16 08:02:22;;;;;;;3.63;3.53;;;45.80;35.90;;;46.59;nan;100796.28;4972461;28;20655;-66
2022/06/16 08:04:49;;;;;;;3.80;3.60;;;45.80;36.00;;;46.45;nan;100790.34;4972814;28;20614;-68
2022/06/16 08:07:17;;;;;;;3.53;3.37;;;46.00;36.00;;;46.34;nan;100789.19;4992227;28;21213;-66
2022/06/16 08:09:44;;;;;;;3.80;3.63;;;45.50;35.80;;;46.98;nan;100801.06;4991122;28;20629;-66
2022/06/16 08:12:12;;;;;;;3.83;3.57;;;46.20;35.40;;;47.04;nan;100796.13;4990969;28;20666;-66
2022/06/16 08:14:44;;;;;;;4.10;3.83;;;46.20;35.30;;;47.64;nan;100792.31;4974653;28;20635;-67
2022/06/16 08:17:21;;;;;;;3.90;3.80;;;46.90;35.40;;;47.23;nan;100799.03;4986524;28;20634;-66
2022/06/16 08:19:48;;;;;;;3.67;3.57;;;47.20;35.00;;;48.15;nan;100805.94;4990529;28;20629;-66
2022/06/16 08:22:15;;;;;;;3.70;3.60;;;47.30;35.10;;;48.35;nan;100804.03;4989987;28;20699;-65
2022/06/16 08:24:43;;;;;;;3.80;3.50;;;47.60;34.50;;;48.18;nan;100819.06;4990630;28;20622;-66
2022/06/16 08:27:11;;;;;;;4.00;3.80;;;47.60;34.40;;;46.59;nan;100812.84;4991171;28;20639;-66
2022/06/16 08:29:42;;;;;;;3.90;3.70;;;46.70;33.40;;;45.28;nan;100802.78;4982341;28;20637;-66
2022/06/16 08:32:11;;;;;;;7.40;3.83;;;45.20;34.50;;;45.58;nan;100803.50;4989671;28;20650;-67
2022/06/16 08:34:39;;;;;;;3.60;3.40;;;45.10;34.80;;;45.47;nan;100807.81;4971145;28;20631;-66
2022/06/16 08:37:06;;;;;;;3.87;3.57;;;45.10;34.40;;;45.92;nan;100813.38;4971966;28;20619;-68
2022/06/16 08:39:34;;;;;;;4.93;3.50;;;45.20;35.00;;;45.97;nan;100813.16;4972001;28;20667;-66
2022/06/16 08:42:38;;;;;;;3.70;3.50;;;45.60;34.40;;;46.08;nan;100820.66;4970517;28;21289;-67
2022/06/16 08:45:35;;;;;;;3.87;3.67;;;45.90;34.30;;;46.50;nan;100826.78;4971014;28;20622;-66
2022/06/16 08:48:31;;;;;;;3.63;3.43;;;46.20;34.10;;;46.81;nan;100831.72;4982206;28;20692;-67
2022/06/16 08:51:35;;;;;;;4.27;4.07;;;46.00;34.10;;;47.36;nan;100831.00;4990030;28;20628;-66
2022/06/16 08:54:21;;;;;;;3.77;3.53;;;46.60;34.00;;;48.05;nan;100839.63;4989138;28;21186;-68
2022/06/16 08:57:12;;;;;;;8.27;4.00;;;47.30;33.30;;;48.60;nan;100833.16;4972148;28;20626;-67
2022/06/16 09:00:13;;;;;;;3.10;3.00;;;48.00;33.20;;;48.97;nan;100844.66;4984887;28;20670;-66
2022/06/16 09:03:07;;;;;;;3.97;3.77;;;48.70;32.70;;;49.69;nan;100838.25;4985038;28;20670;-66
2022/06/16 09:06:18;;;;;;;5.33;3.70;;;48.90;32.70;;;48.01;nan;100844.28;4979186;28;21183;-68
2022/06/16 09:08:57;;;;;;;3.60;3.40;;;48.00;32.50;;;49.33;nan;100846.22;4970379;28;20642;-66
2022/06/16 09:11:54;;;;;;;3.43;3.33;;;48.40;32.40;;;49.27;nan;100842.97;4971463;28;20635;-66
2022/06/16 09:15:20;;;;;;;3.43;3.33;;;48.80;32.20;;;48.87;nan;100836.94;4970187;28;20697;-68
2022/06/16 09:18:12;;;;;;;3.30;3.20;;;48.80;32.00;;;49.67;nan;100835.06;4988862;28;20613;-67
2022/06/16 09:20:47;;;;;;;4.20;3.53;;;48.90;32.10;;;49.45;nan;100838.59;4988880;28;20630;-68
2022/06/16 09:23:58;;;;;;;6.33;3.70;;;48.90;31.80;;;50.17;nan;100835.97;4976349;28;20668;-67
2022/06/16 09:27:09;;;;;;;3.73;3.50;;;49.30;31.80;;;51.32;nan;100846.41;4973437;28;20622;-67
2022/06/16 09:29:43;;;;;;;3.87;3.77;;;50.50;31.50;;;51.46;nan;100852.91;4971486;28;20637;-66
2022/06/16 09:32:26;;;;;;;3.70;3.60;;;50.80;31.30;;;51.90;nan;100845.47;4970973;28;20658;-67
2022/06/16 09:35:08;;;;;;;3.80;3.70;;;51.30;31.20;;;52.17;nan;100851.72;4970513;28;20986;-66
2022/06/16 09:38:02;;;;;;;3.70;3.60;;;51.30;31.70;;;52.35;nan;100838.69;4969204;28;21196;-66
2022/06/16 09:40:38;;;;;;;4.83;4.40;;;52.20;30.80;;;53.10;nan;100842.75;4985864;28;20614;-67
2022/06/16 09:43:19;;;;;;;3.73;3.63;;;52.40;30.70;;;52.29;nan;100840.25;4985585;28;21486;-68
2022/06/16 09:46:16;;;;;;;3.90;3.80;;;51.80;30.40;;;50.60;nan;100838.28;5002223;28;20630;-66
2022/06/16 09:49:03;;;;;;;4.90;3.90;;;50.20;30.70;;;51.31;nan;100833.69;4994363;28;21200;-67
2022/06/16 09:51:54;;;;;;;4.07;3.90;;;50.60;31.30;;;50.32;nan;100838.63;4991474;28;20646;-69
2022/06/16 09:54:39;;;;;;;4.13;3.93;;;50.30;31.00;;;50.70;nan;100839.59;4986686;28;20626;-67
2022/06/16 09:57:23;;;;;;;3.40;3.30;;;50.30;30.90;;;51.27;nan;100839.19;4988566;28;20629;-67
2022/06/16 10:00:04;;;;;;;3.77;3.57;;;50.50;30.90;;;51.10;nan;100845.31;4984366;28;20692;-67
2022/06/16 10:02:45;;;;;;;3.90;3.70;;;50.40;30.90;;;49.80;nan;100846.78;4988475;28;20654;-66
2022/06/16 10:05:19;;;;;;;3.70;3.40;;;49.10;31.10;;;50.10;nan;100846.94;4973732;28;20631;-67
2022/06/16 10:07:54;;;;;;;3.70;3.40;;;49.40;31.30;;;49.09;nan;100852.84;4973739;28;20627;-66
2022/06/16 10:10:33;;;;;;;3.67;3.57;;;48.60;31.60;;;48.59;nan;100839.03;4986019;28;20625;-66
2022/06/16 10:13:14;;;;;;;3.50;3.30;;;48.10;31.90;;;48.19;nan;100848.34;4980970;28;20666;-66
2022/06/16 10:15:59;;;;;;;4.10;3.80;;;47.60;32.10;;;47.01;nan;100844.53;4985023;28;20641;-66
2022/06/16 10:18:26;;;;;;;3.93;3.67;;;46.50;32.30;;;45.29;nan;100851.25;4985544;28;20667;-68
2022/06/16 10:20:53;;;;;;;4.37;4.10;;;44.60;32.80;;;42.24;nan;100842.69;4984260;28;20629;-67
2022/06/16 10:23:35;;;;;;;3.83;3.53;;;41.70;33.70;;;40.78;nan;100843.41;4974702;28;20686;-68
2022/06/16 10:26:07;;;;;;;4.63;3.40;;;39.90;35.00;;;39.58;nan;100837.38;4988030;28;20625;-66
2022/06/16 10:29:03;;;;;;;4.90;4.50;;;38.50;36.10;;;38.51;nan;100842.56;4986398;28;21174;-66
2022/06/16 10:31:45;;;;;;;4.30;3.90;;;37.50;37.00;;;36.82;nan;100838.88;4992517;28;20637;-66
2022/06/16 10:34:38;;;;;;;6.60;4.13;;;36.10;38.40;;;35.87;nan;100851.47;4982187;28;20638;-66
2022/06/16 10:37:23;;;;;;;4.17;3.87;;;34.90;39.20;;;35.12;nan;100846.72;4981800;28;20633;-68
2022/06/16 10:40:04;;;;;;;4.73;4.30;;;34.10;40.10;;;34.96;nan;100862.09;4991499;28;21317;-68
2022/06/16 10:42:41;;;;;;;4.40;4.03;;;33.80;40.50;;;34.57;nan;100857.28;4991420;28;21273;-66
2022/06/16 10:45:23;;;;;;;4.00;3.70;;;33.50;40.60;;;33.87;nan;100865.66;4993674;28;20983;-66
2022/06/16 10:47:56;;;;;;;4.27;3.97;;;33.20;40.60;;;33.79;nan;100866.97;4986145;28;20642;-66
2022/06/16 10:50:46;;;;;;;5.83;4.03;;;32.80;40.80;;;33.47;nan;100872.31;4987489;28;20631;-67
2022/06/16 10:53:45;;;;;;;4.17;3.87;;;32.50;41.10;;;32.59;nan;100863.59;4985579;28;20664;-69
2022/06/16 10:56:20;;;;;;;4.03;3.60;;;31.70;41.00;;;32.51;nan;100880.25;4983899;28;21019;-66
2022/06/16 10:58:59;;;;;;;3.80;3.50;;;31.60;41.20;;;32.52;nan;100877.28;4974142;28;20781;-66
2022/06/16 11:01:36;;;;;;;4.07;3.87;;;31.50;41.20;;;32.52;nan;100879.97;4984131;28;20618;-66
2022/06/16 11:04:11;;;;;;;4.40;4.00;;;31.50;41.60;;;32.42;nan;100879.81;4975074;28;20653;-66
2022/06/16 11:06:47;;;;;;;3.87;3.57;;;31.50;40.90;;;32.29;nan;100876.63;4973932;28;20631;-67
2022/06/16 11:09:23;;;;;;;4.30;3.90;;;31.40;41.30;;;32.17;nan;100875.91;4975681;28;20678;-69
2022/06/16 11:12:00;;;;;;;4.50;4.10;;;31.20;41.60;;;32.06;nan;100883.84;4984035;28;20664;-65
2022/06/16 11:14:48;;;;;;;6.03;4.23;;;31.10;41.80;;;31.96;nan;100883.69;4977301;28;20638;-65
2022/06/16 11:17:40;;;;;;;3.53;3.30;;;31.00;41.50;;;31.85;nan;100887.22;4986644;28;20688;-66
2022/06/16 11:20:10;;;;;;;3.50;3.20;;;30.90;41.70;;;31.71;nan;100893.97;4991878;28;20658;-67
2022/06/16 11:22:42;;;;;;;3.70;3.50;;;30.80;40.90;;;31.70;nan;100889.66;4979906;28;20732;-66
2022/06/16 11:25:32;;;;;;;4.10;3.80;;;30.80;41.00;;;31.70;nan;100900.44;4986858;28;20685;-66
2022/06/16 11:28:07;;;;;;;3.60;3.30;;;30.70;41.10;;;31.54;nan;100895.81;4976215;28;20634;-65
2022/06/16 11:30:47;;;;;;;3.60;3.40;;;30.60;40.20;;;31.52;nan;100897.94;4973555;28;20623;-65
2022/06/16 11:36:22;;;;;;;3.43;3.23;;;30.40;40.50;;;31.34;nan;100890.84;4973660;28;20623;-65
2022/06/16 11:39:21;;;;;;;6.00;3.00;;;30.30;40.30;;;31.16;nan;100887.47;4973198;28;20667;-68
2022/06/16 11:41:53;;;;;;;3.33;2.90;;;30.20;40.00;;;31.18;nan;100885.34;4973223;28;21069;-65
2022/06/16 11:44:46;;;;;;;4.73;3.27;;;30.20;39.80;;;31.30;nan;100878.06;4991731;28;20630;-67
2022/06/16 11:47:35;;;;;;;3.33;3.00;;;30.40;39.70;;;31.23;nan;100880.91;4978074;28;20623;-68
2022/06/16 11:50:40;;;;;;;19.53;14.70;;;30.30;40.30;;;31.30;nan;100873.50;4988077;28;20627;-67
2022/06/16 11:53:35;;;;;;;14.83;12.17;;;30.40;40.30;;;31.28;nan;100880.19;4991891;28;20658;-66
2022/06/16 11:56:13;;;;;;;3.50;3.30;;;30.30;39.70;;;31.19;nan;100876.22;4992215;28;20642;-66
2022/06/16 11:58:59;;;;;;;3.10;2.90;;;30.20;39.80;;;31.16;nan;100874.81;4989503;28;20726;-66
2022/06/16 12:01:46;;;;;;;2.63;2.43;;;30.20;40.00;;;31.22;nan;100879.25;4992096;28;20638;-66
2022/06/16 12:04:19;;;;;;;2.37;2.27;;;30.20;38.20;;;31.07;nan;100881.63;4972933;28;20735;-66
2022/06/16 12:07:37;;;;;;;3.33;3.03;;;30.20;35.80;;;30.92;nan;100880.53;4973359;28;20624;-66
2022/06/16 12:10:26;;;;;;;2.60;2.43;;;30.00;37.30;;;30.81;nan;100873.25;4970307;28;20635;-66
2022/06/16 12:13:13;;;;;;;2.70;2.50;;;29.90;37.00;;;30.68;nan;100863.53;4971637;28;20663;-66
2022/06/16 12:15:54;;;;;;;2.73;2.53;;;29.80;36.90;;;30.55;nan;100864.59;4972777;28;20635;-65
2022/06/16 12:18:31;;;;;;;3.20;2.40;;;29.70;35.20;;;30.48;nan;100871.97;4978228;28;20627;-64
2022/06/16 12:21:28;;;;;;;2.40;2.30;;;29.60;35.90;;;30.56;nan;100868.94;4972671;28;20638;-66
2022/06/16 12:24:29;;;;;;;3.20;2.77;;;29.60;36.50;;;30.47;nan;100866.84;4972709;28;20630;-66
2022/06/16 12:27:14;;;;;;;5.00;2.80;;;29.50;37.20;;;30.42;nan;100872.09;4971380;28;20978;-66
2022/06/16 12:30:08;;;;;;;2.93;2.77;;;29.40;37.60;;;30.35;nan;100866.00;4977159;28;20713;-66
2022/06/16 12:33:05;;;;;;;2.83;2.60;;;29.40;37.50;;;30.34;nan;100861.69;4986469;28;20690;-66
2022/06/16 12:35:42;;;;;;;2.70;2.50;;;29.40;37.70;;;30.22;nan;100868.91;4972639;28;20642;-68
2022/06/16 12:38:24;;;;;;;3.03;2.73;;;29.30;36.80;;;30.17;nan;100868.78;4992842;28;21276;-67
2022/06/16 12:41:01;;;;;;;2.40;2.30;;;29.30;36.70;;;30.17;nan;100864.22;4990126;28;20622;-66
2022/06/16 12:43:35;;;;;;;2.47;2.37;;;29.30;37.20;;;30.12;nan;100858.72;4985171;28;20669;-66
2022/06/16 12:46:08;;;;;;;2.77;2.57;;;29.20;37.00;;;30.15;nan;100858.25;4970606;28;20630;-65